Time;durP1;ratioP1;P1;durP2;ratioP2;P2;SDS_P1;SDS_P2;PMS_P1;PMS_P2;Temp;Humidity;BMP_temperature;BMP_pressure;BME280_temperature;BME280_humidity;BME280_pressure;Samples;Min_cycle;Max_cycle;Signal;HPM_P1;HPM_P2
2023/04/11 00:00:33;;;;;;;1.38;0.60;;;6.30;99.90;;;;;;5094569;28;20040;-84
2023/04/11 00:03:01;;;;;;;1.67;0.75;;;6.90;99.90;;;;;;5094244;28;20054;-85
2023/04/11 00:05:30;;;;;;;1.63;0.80;;;6.40;99.90;;;;;;5095169;28;20047;-85
2023/04/11 00:07:55;;;;;;;1.02;0.70;;;6.70;99.90;;;;;;5094129;28;20048;-84
2023/04/11 00:10:21;;;;;;;1.55;0.85;;;6.70;99.90;;;;;;5093957;28;20048;-84
2023/04/11 00:12:47;;;;;;;1.30;0.70;;;7.00;99.90;;;;;;5095698;28;20036;-84
2023/04/11 00:15:15;;;;;;;1.77;0.70;;;6.60;99.90;;;;;;5095586;28;20036;-84
2023/04/11 00:17:41;;;;;;;1.50;0.70;;;6.40;99.90;;;;;;5095418;28;20058;-84
2023/04/11 00:20:09;;;;;;;1.60;0.75;;;6.50;99.90;;;;;;5095101;28;20408;-83
2023/04/11 00:22:37;;;;;;;0.88;0.70;;;6.50;99.90;;;;;;5095350;28;20040;-83
2023/04/11 00:25:03;;;;;;;0.75;0.70;;;6.60;99.90;;;;;;5095259;28;20043;-83
2023/04/11 00:27:29;;;;;;;0.77;0.60;;;6.50;99.90;;;;;;5093670;28;20058;-83
2023/04/11 00:29:56;;;;;;;1.30;0.70;;;6.30;99.90;;;;;;5095092;28;20040;-82
2023/04/11 00:32:26;;;;;;;0.93;0.70;;;6.50;99.90;;;;;;5094866;28;20044;-82
2023/04/11 00:34:51;;;;;;;1.10;0.70;;;6.20;99.90;;;;;;5095017;28;20047;-82
2023/04/11 00:37:20;;;;;;;0.65;0.50;;;6.60;99.90;;;;;;5093505;28;20040;-82
2023/04/11 00:39:51;;;;;;;0.95;0.60;;;6.50;99.90;;;;;;5094524;28;20055;-82
2023/04/11 00:42:17;;;;;;;1.88;0.90;;;6.70;99.90;;;;;;5095013;28;20055;-83
2023/04/11 00:44:43;;;;;;;1.48;0.85;;;6.10;99.90;;;;;;5094975;28;20111;-83
2023/04/11 00:47:09;;;;;;;2.55;0.90;;;6.40;99.90;;;;;;5093254;28;20498;-83
2023/04/11 00:49:35;;;;;;;0.80;0.60;;;6.70;99.90;;;;;;5094563;28;20046;-83
2023/04/11 00:52:02;;;;;;;0.82;0.60;;;6.50;99.90;;;;;;5094788;28;20116;-83
2023/04/11 00:54:29;;;;;;;1.10;0.68;;;6.10;99.90;;;;;;5093453;28;20044;-83
2023/04/11 00:57:00;;;;;;;0.93;0.68;;;6.30;99.90;;;;;;5094733;28;20036;-83
2023/04/11 00:59:31;;;;;;;0.80;0.70;;;6.70;99.90;;;;;;5094718;28;20153;-83
2023/04/11 01:01:58;;;;;;;0.93;0.70;;;6.30;99.90;;;;;;5093505;28;20036;-83
2023/04/11 01:04:25;;;;;;;1.30;0.70;;;6.60;99.90;;;;;;5094615;28;20418;-83
2023/04/11 01:06:57;;;;;;;1.40;0.70;;;6.60;99.90;;;;;;5093214;28;20342;-83
2023/04/11 01:09:26;;;;;;;1.40;0.82;;;6.10;99.90;;;;;;5094214;28;20477;-83
2023/04/11 01:11:52;;;;;;;0.90;0.68;;;5.90;99.90;;;;;;5092794;28;20044;-83
2023/04/11 01:14:19;;;;;;;1.00;0.80;;;6.10;99.90;;;;;;5094369;28;20032;-83
2023/04/11 01:16:49;;;;;;;0.75;0.60;;;5.90;99.90;;;;;;5094363;28;20480;-83
2023/04/11 01:19:19;;;;;;;1.77;0.70;;;6.50;99.90;;;;;;5092867;28;20055;-83
2023/04/11 01:21:47;;;;;;;1.02;0.68;;;6.50;99.90;;;;;;5094313;28;20032;-83
2023/04/11 01:24:13;;;;;;;0.93;0.68;;;6.60;99.90;;;;;;5094206;28;20088;-83
2023/04/11 01:26:39;;;;;;;1.38;0.82;;;6.50;99.90;;;;;;5094228;28;20430;-84
2023/04/11 01:29:04;;;;;;;1.13;0.80;;;6.60;99.90;;;;;;5093739;28;20070;-83
2023/04/11 01:31:33;;;;;;;1.95;0.90;;;6.20;99.90;;;;;;5092579;28;20040;-83
2023/04/11 01:34:00;;;;;;;1.35;0.80;;;6.70;99.90;;;;;;5093786;28;20043;-84
2023/04/11 01:36:27;;;;;;;1.30;0.88;;;6.70;99.90;;;;;;5094069;28;20031;-84
2023/04/11 01:38:53;;;;;;;1.15;0.80;;;6.30;99.90;;;;;;5093660;28;20059;-83
2023/04/11 01:41:20;;;;;;;1.05;0.60;;;6.20;99.90;;;;;;5092832;28;20048;-84
2023/04/11 01:43:46;;;;;;;1.67;0.90;;;6.50;99.90;;;;;;5093195;28;20428;-84
2023/04/11 01:46:12;;;;;;;1.17;0.70;;;6.30;99.90;;;;;;5094013;28;20040;-84
2023/04/11 01:48:38;;;;;;;1.00;0.82;;;6.50;99.90;;;;;;5093566;28;20031;-84
2023/04/11 01:51:04;;;;;;;1.75;0.80;;;6.00;99.90;;;;;;5093928;28;20392;-84
2023/04/11 01:53:30;;;;;;;1.90;1.15;;;6.70;99.90;;;;;;5094140;28;20036;-84
2023/04/11 01:55:56;;;;;;;0.90;0.80;;;6.30;99.90;;;;;;5094501;28;20035;-84
2023/04/11 01:58:21;;;;;;;1.42;0.80;;;6.70;99.90;;;;;;5092399;28;20500;-84
2023/04/11 02:00:47;;;;;;;1.75;0.82;;;6.00;99.90;;;;;;5092176;28;20052;-84
2023/04/11 02:03:13;;;;;;;1.83;0.70;;;6.00;99.90;;;;;;5093716;28;20079;-84
2023/04/11 02:05:38;;;;;;;1.38;0.93;;;6.10;99.90;;;;;;5075340;28;20072;-83
2023/04/11 02:08:04;;;;;;;1.30;0.90;;;6.50;99.90;;;;;;5092413;28;20044;-84
2023/04/11 02:10:30;;;;;;;1.77;0.90;;;6.10;99.90;;;;;;5093582;28;20040;-84
2023/04/11 02:12:56;;;;;;;1.52;1.08;;;6.60;99.90;;;;;;5093313;28;20093;-84
2023/04/11 02:15:21;;;;;;;1.50;0.85;;;6.60;99.90;;;;;;5093691;28;20043;-84
2023/04/11 02:17:48;;;;;;;2.47;1.10;;;6.60;99.90;;;;;;5093625;28;20429;-84
2023/04/11 02:20:14;;;;;;;1.67;1.08;;;6.20;99.90;;;;;;5092148;28;20056;-84
2023/04/11 02:22:40;;;;;;;1.58;0.90;;;6.70;99.90;;;;;;5093694;28;20089;-84
2023/04/11 02:25:06;;;;;;;2.00;1.20;;;6.50;99.90;;;;;;5092152;28;20058;-84
2023/04/11 02:27:35;;;;;;;1.17;1.00;;;6.10;99.90;;;;;;5092386;28;20044;-85
2023/04/11 02:30:04;;;;;;;1.75;1.00;;;6.70;99.90;;;;;;5093616;28;20040;-85
2023/04/11 02:32:34;;;;;;;1.70;1.00;;;6.50;99.90;;;;;;5093593;28;20047;-85
2023/04/11 02:35:00;;;;;;;0.80;0.80;;;6.60;99.90;;;;;;5093606;28;20044;-85
2023/04/11 02:37:26;;;;;;;2.40;1.25;;;6.70;99.90;;;;;;5094145;28;20042;-84
2023/04/11 02:39:52;;;;;;;2.55;1.20;;;6.40;99.90;;;;;;5093192;28;20078;-84
2023/04/11 02:42:17;;;;;;;1.88;1.25;;;6.80;99.90;;;;;;5091822;28;20048;-84
2023/04/11 02:44:43;;;;;;;1.10;0.75;;;6.10;99.90;;;;;;5091883;28;20119;-85
2023/04/11 02:47:08;;;;;;;1.67;0.95;;;6.10;99.90;;;;;;5093345;28;20089;-85
2023/04/11 02:49:34;;;;;;;1.48;1.20;;;6.20;99.90;;;;;;5091932;28;20075;-84
2023/04/11 02:52:00;;;;;;;1.17;0.82;;;6.60;99.90;;;;;;5091827;28;20040;-83
2023/04/11 02:54:25;;;;;;;1.40;0.80;;;6.10;99.90;;;;;;5092023;28;20036;-83
2023/04/11 02:56:51;;;;;;;1.30;0.85;;;6.50;99.90;;;;;;5094864;28;20528;-82
2023/04/11 02:59:17;;;;;;;0.90;0.60;;;6.50;99.90;;;;;;5095416;28;20040;-82
2023/04/11 03:01:44;;;;;;;0.80;0.70;;;6.70;99.90;;;;;;5078469;28;20123;-82
2023/04/11 03:04:09;;;;;;;1.00;0.82;;;6.80;99.90;;;;;;5095361;28;20040;-82
2023/04/11 03:06:35;;;;;;;1.10;0.70;;;6.10;99.90;;;;;;5096766;28;20043;-82
2023/04/11 03:09:01;;;;;;;0.90;0.60;;;6.80;99.90;;;;;;5095170;28;20413;-82
2023/04/11 03:11:26;;;;;;;0.65;0.60;;;6.40;99.90;;;;;;5096754;28;20036;-82
2023/04/11 03:13:52;;;;;;;0.70;0.63;;;6.10;99.90;;;;;;5095124;28;20445;-82
2023/04/11 03:16:18;;;;;;;0.60;0.60;;;6.10;99.90;;;;;;5096639;28;20058;-82
2023/04/11 03:18:44;;;;;;;0.80;0.70;;;6.10;99.90;;;;;;5096286;28;20083;-82
2023/04/11 03:21:10;;;;;;;1.13;0.60;;;6.10;99.90;;;;;;5095329;28;20075;-82
2023/04/11 03:23:37;;;;;;;1.20;0.60;;;6.20;99.90;;;;;;5096582;28;20161;-82
2023/04/11 03:26:06;;;;;;;0.70;0.65;;;6.70;99.90;;;;;;5094979;28;20040;-82
2023/04/11 03:28:32;;;;;;;1.08;0.80;;;6.50;99.90;;;;;;5130211;27;20040;-82
2023/04/11 03:30:58;;;;;;;0.73;0.70;;;6.70;99.90;;;;;;5094814;28;20527;-82
2023/04/11 03:33:23;;;;;;;0.60;0.60;;;6.60;99.90;;;;;;5094770;28;20062;-82
2023/04/11 03:35:49;;;;;;;2.03;0.90;;;6.40;99.90;;;;;;5096276;28;20115;-82
2023/04/11 03:38:15;;;;;;;1.00;0.80;;;6.30;99.90;;;;;;5095665;28;20055;-82
2023/04/11 03:40:40;;;;;;;0.95;0.70;;;6.70;99.90;;;;;;5094654;28;20048;-82
2023/04/11 03:43:06;;;;;;;0.77;0.68;;;6.30;99.90;;;;;;5094745;28;20040;-82
2023/04/11 03:45:32;;;;;;;1.13;0.80;;;6.40;99.90;;;;;;5095801;28;20070;-82
2023/04/11 03:47:57;;;;;;;1.08;0.70;;;6.20;99.90;;;;;;5094529;28;20040;-82
2023/04/11 03:50:23;;;;;;;1.17;0.80;;;6.30;99.90;;;;;;5094402;28;20048;-82
2023/04/11 03:52:49;;;;;;;0.85;0.80;;;6.90;99.90;;;;;;5094725;28;20082;-81
2023/04/11 03:55:14;;;;;;;1.25;0.90;;;6.90;99.90;;;;;;5095668;28;20036;-81
2023/04/11 03:57:40;;;;;;;1.67;0.80;;;6.40;99.90;;;;;;5095889;28;20032;-80
2023/04/11 04:00:06;;;;;;;1.33;1.08;;;6.50;99.90;;;;;;5095669;28;20480;-79
2023/04/11 04:02:32;;;;;;;1.67;1.00;;;6.30;99.90;;;;;;5095851;28;20044;-79
2023/04/11 04:04:58;;;;;;;1.90;1.20;;;7.00;99.90;;;;;;5094222;28;20043;-79
2023/04/11 04:07:24;;;;;;;1.95;1.25;;;6.90;99.90;;;;;;5127836;27;20119;-79
2023/04/11 04:09:51;;;;;;;2.35;1.38;;;6.80;99.90;;;;;;5095656;28;20062;-79
2023/04/11 04:12:17;;;;;;;1.88;1.40;;;7.10;99.90;;;;;;5095646;28;20123;-79
2023/04/11 04:14:43;;;;;;;1.30;0.95;;;7.20;99.90;;;;;;5094073;28;20036;-81
2023/04/11 04:17:10;;;;;;;3.33;1.23;;;7.20;99.90;;;;;;5094171;28;20040;-82
2023/04/11 04:19:36;;;;;;;1.70;1.00;;;6.90;99.90;;;;;;5095430;28;20075;-82
2023/04/11 04:22:02;;;;;;;1.42;1.10;;;6.70;99.90;;;;;;5076970;28;20067;-82
2023/04/11 04:24:36;;;;;;;1.13;0.80;;;7.00;99.90;;;;;;5096112;28;20068;-82
2023/04/11 04:27:02;;;;;;;1.08;0.90;;;6.70;99.90;;;;;;5095369;28;20044;-82
2023/04/11 04:29:37;;;;;;;1.65;1.05;;;6.70;99.90;;;;;;5093644;28;20399;-82
2023/04/11 04:32:12;;;;;;;2.05;1.00;;;6.70;99.90;;;;;;5094935;28;20036;-82
2023/04/11 04:34:48;;;;;;;3.47;1.60;;;7.30;99.90;;;;;;5093614;28;20476;-82
2023/04/11 04:37:20;;;;;;;3.75;1.65;;;7.30;99.90;;;;;;5093578;28;20119;-82
2023/04/11 04:39:53;;;;;;;4.30;1.98;;;7.40;99.90;;;;;;5094614;28;20050;-80
2023/04/11 04:42:20;;;;;;;5.55;2.05;;;7.40;99.90;;;;;;5127515;27;20040;-81
2023/04/11 04:44:46;;;;;;;6.43;2.33;;;7.30;99.90;;;;;;5093340;28;20047;-81
2023/04/11 04:47:11;;;;;;;7.10;2.47;;;6.90;99.90;;;;;;5094525;28;20044;-81
2023/04/11 04:49:37;;;;;;;8.35;3.22;;;7.00;99.90;;;;;;5093486;28;20041;-81
2023/04/11 04:52:03;;;;;;;7.43;2.75;;;7.00;99.90;;;;;;5094787;28;20380;-81
2023/04/11 04:54:30;;;;;;;4.75;2.72;;;7.40;99.90;;;;;;5076331;28;20162;-79
2023/04/11 04:56:56;;;;;;;5.32;2.30;;;7.00;99.90;;;;;;5127248;27;20047;-78
2023/04/11 04:59:21;;;;;;;6.53;2.78;;;6.90;99.90;;;;;;5093222;28;20040;-78
2023/04/11 05:01:50;;;;;;;6.93;2.90;;;7.10;99.90;;;;;;5094629;28;20050;-78
2023/04/11 05:04:16;;;;;;;3.75;2.33;;;7.30;99.90;;;;;;5076461;28;20365;-79
2023/04/11 05:06:41;;;;;;;8.27;3.00;;;6.90;99.90;;;;;;5094606;28;20040;-81
2023/04/11 05:09:07;;;;;;;5.03;2.70;;;6.90;99.90;;;;;;5094397;28;20067;-83
2023/04/11 05:11:33;;;;;;;6.15;2.20;;;7.00;99.90;;;;;;5094552;28;20032;-82
2023/04/11 05:13:59;;;;;;;5.55;2.85;;;7.20;99.90;;;;;;5092867;28;20044;-83
2023/04/11 05:16:24;;;;;;;5.05;2.50;;;7.10;99.90;;;;;;5076000;28;20036;-82
2023/04/11 05:18:50;;;;;;;7.35;2.50;;;7.20;99.90;;;;;;5093557;28;20118;-83
2023/04/11 05:21:16;;;;;;;5.78;2.00;;;7.20;99.90;;;;;;5093132;28;20028;-82
2023/04/11 05:23:41;;;;;;;6.75;2.53;;;7.30;99.90;;;;;;5092830;28;20475;-82
2023/04/11 05:26:08;;;;;;;5.10;2.03;;;7.30;99.90;;;;;;5094288;28;20043;-84
2023/04/11 05:28:34;;;;;;;6.75;2.63;;;7.30;99.90;;;;;;5094456;28;20044;-83
2023/04/11 05:31:00;;;;;;;5.82;2.17;;;7.20;99.90;;;;;;5092635;28;20391;-83
2023/04/11 05:33:26;;;;;;;5.38;2.22;;;7.40;99.90;;;;;;5094243;28;20044;-83
2023/04/11 05:35:52;;;;;;;6.50;2.30;;;7.50;99.90;;;;;;5092460;28;20054;-83
2023/04/11 05:38:19;;;;;;;5.38;2.40;;;7.30;99.90;;;;;;5092440;28;20048;-84
2023/04/11 05:40:44;;;;;;;8.18;2.30;;;7.20;99.90;;;;;;5093042;28;20078;-79
2023/04/11 05:43:13;;;;;;;4.20;2.38;;;7.40;99.90;;;;;;5075682;28;20492;-81
2023/04/11 05:45:40;;;;;;;5.43;2.40;;;7.40;99.90;;;;;;5093916;28;20093;-79
2023/04/11 05:48:07;;;;;;;4.75;1.70;;;7.40;99.90;;;;;;5093947;28;20051;-79
2023/04/11 05:50:33;;;;;;;4.32;2.13;;;7.60;99.90;;;;;;5092265;28;20040;-79
2023/04/11 05:52:59;;;;;;;4.68;2.28;;;7.40;99.90;;;;;;5094410;28;20048;-80
2023/04/11 05:55:25;;;;;;;4.70;2.15;;;7.40;99.90;;;;;;5094007;28;20043;-79
2023/04/11 05:57:50;;;;;;;7.15;2.40;;;7.60;99.90;;;;;;5093795;28;20072;-80
2023/04/11 06:00:17;;;;;;;4.32;2.03;;;7.60;99.90;;;;;;5093683;28;20040;-80
2023/04/11 06:02:43;;;;;;;5.57;2.30;;;7.50;99.90;;;;;;5093735;28;20055;-79
2023/04/11 06:05:10;;;;;;;5.50;1.92;;;7.60;99.90;;;;;;5092264;28;20055;-80
2023/04/11 06:07:40;;;;;;;5.13;2.13;;;7.50;99.90;;;;;;5093867;28;20039;-79
2023/04/11 06:10:06;;;;;;;5.53;1.98;;;7.60;99.90;;;;;;5092118;28;20044;-80
2023/04/11 06:12:32;;;;;;;4.50;1.80;;;7.50;99.90;;;;;;5093879;28;20123;-80
2023/04/11 06:14:58;;;;;;;8.45;2.50;;;7.50;99.90;;;;;;5093673;28;20494;-81
2023/04/11 06:17:24;;;;;;;4.72;2.00;;;7.70;99.90;;;;;;5126138;28;20051;-83
2023/04/11 06:19:49;;;;;;;4.45;1.83;;;7.60;99.90;;;;;;5093240;28;20043;-74
2023/04/11 06:22:15;;;;;;;6.05;1.95;;;7.70;99.90;;;;;;5093611;28;20040;-80
2023/04/11 06:24:41;;;;;;;6.20;2.22;;;7.70;99.90;;;;;;5093560;28;20038;-81
2023/04/11 06:27:10;;;;;;;7.30;2.20;;;7.60;99.90;;;;;;5093590;28;20065;-81
2023/04/11 06:29:44;;;;;;;4.00;1.98;;;7.60;99.90;;;;;;5093482;28;20032;-81
2023/04/11 06:32:13;;;;;;;6.18;2.15;;;7.90;99.90;;;;;;5096126;28;20044;-81
2023/04/11 06:34:39;;;;;;;4.53;1.80;;;7.70;99.90;;;;;;5096366;28;20043;-82
2023/04/11 06:37:08;;;;;;;4.70;1.90;;;7.70;99.90;;;;;;5097477;28;20395;-81
2023/04/11 06:39:34;;;;;;;6.13;1.90;;;7.70;99.90;;;;;;5095730;28;20048;-81
2023/04/11 06:42:01;;;;;;;4.93;2.25;;;7.80;99.90;;;;;;5095807;28;20104;-82
2023/04/11 06:44:27;;;;;;;5.65;2.00;;;7.90;99.90;;;;;;5095790;28;20047;-82
2023/04/11 06:46:53;;;;;;;4.25;1.65;;;8.00;99.90;;;;;;5097184;28;20090;-81
2023/04/11 06:49:18;;;;;;;4.53;2.08;;;7.80;99.90;;;;;;5097158;28;20211;-81
2023/04/11 06:51:51;;;;;;;4.93;1.70;;;7.80;99.90;;;;;;5097294;28;20067;-81
2023/04/11 06:54:18;;;;;;;5.63;1.92;;;7.90;99.90;;;;;;5078624;28;20070;-81
2023/04/11 06:56:44;;;;;;;5.70;1.67;;;7.80;99.90;;;;;;5097101;28;20093;-81
2023/04/11 06:59:10;;;;;;;4.88;1.85;;;8.00;99.90;;;;;;5097096;28;20383;-81
2023/04/11 07:01:36;;;;;;;4.57;1.90;;;8.00;99.90;;;;;;5095416;28;20036;-82
2023/04/11 07:04:05;;;;;;;4.63;1.90;;;7.90;99.90;;;;;;5095335;28;20488;-82
2023/04/11 07:06:31;;;;;;;5.35;1.95;;;8.10;99.90;;;;;;5097003;28;20040;-82
2023/04/11 07:08:59;;;;;;;4.85;2.03;;;8.10;99.90;;;;;;5129318;27;20561;-82
2023/04/11 07:11:25;;;;;;;4.57;1.67;;;7.90;99.90;;;;;;5095249;28;20055;-81
2023/04/11 07:13:51;;;;;;;4.13;1.58;;;8.00;99.90;;;;;;5078388;28;20028;-81
2023/04/11 07:16:16;;;;;;;5.43;1.70;;;8.00;99.90;;;;;;5095307;28;20044;-81
2023/04/11 07:18:43;;;;;;;5.45;1.70;;;8.10;99.90;;;;;;5095473;28;20038;-81
2023/04/11 07:21:12;;;;;;;5.30;2.58;;;8.20;99.90;;;;;;5095315;28;20067;-81
2023/04/11 07:23:39;;;;;;;3.63;1.80;;;8.20;99.90;;;;;;5095006;28;20118;-82
2023/04/11 07:26:07;;;;;;;5.00;1.67;;;8.20;99.90;;;;;;5078062;28;20044;-81
2023/04/11 07:28:36;;;;;;;6.15;2.00;;;8.30;99.90;;;;;;5078347;28;20429;-81
2023/04/11 07:31:02;;;;;;;6.55;2.00;;;8.30;99.90;;;;;;5128909;27;20035;-81
2023/04/11 07:33:28;;;;;;;4.45;1.98;;;8.40;99.90;;;;;;5129297;27;20396;-81
2023/04/11 07:35:54;;;;;;;5.10;1.80;;;8.50;99.90;;;;;;5077979;28;20476;-79
2023/04/11 07:38:28;;;;;;;4.93;1.77;;;8.60;99.90;;;;;;5094744;28;20040;-82
2023/04/11 07:40:56;;;;;;;5.25;1.95;;;8.60;99.90;;;;;;5078192;28;20544;-82
2023/04/11 07:43:25;;;;;;;6.28;1.65;;;8.70;99.90;;;;;;5095107;28;20044;-82
2023/04/11 07:45:52;;;;;;;4.10;1.70;;;8.70;99.90;;;;;;5094555;28;20048;-82
2023/04/11 07:48:20;;;;;;;3.65;1.45;;;8.70;99.90;;;;;;5094597;28;20552;-82
2023/04/11 07:50:45;;;;;;;5.82;1.42;;;8.70;99.90;;;;;;5095969;28;20059;-82
2023/04/11 07:53:11;;;;;;;4.72;1.63;;;8.70;99.90;;;;;;5094455;28;20044;-82
2023/04/11 07:55:37;;;;;;;4.35;1.30;;;8.40;99.90;;;;;;5077547;28;20089;-82
2023/04/11 07:58:03;;;;;;;3.38;1.42;;;8.40;99.90;;;;;;5095874;28;20115;-82
2023/04/11 08:00:31;;;;;;;5.72;1.50;;;8.40;99.90;;;;;;5096666;28;20050;-80
2023/04/11 08:02:58;;;;;;;7.10;2.50;;;8.40;99.90;;;;;;5096628;28;20506;-80
2023/04/11 08:05:24;;;;;;;6.95;2.00;;;8.50;99.90;;;;;;5097064;28;20074;-81
2023/04/11 08:07:49;;;;;;;5.85;2.15;;;8.40;99.90;;;;;;5096277;28;20388;-81
2023/04/11 08:10:15;;;;;;;4.10;1.52;;;8.50;99.90;;;;;;5077236;28;20075;-81
2023/04/11 08:12:41;;;;;;;9.15;2.30;;;8.50;99.90;;;;;;5128174;27;20036;-80
2023/04/11 08:15:07;;;;;;;4.35;1.88;;;8.30;99.90;;;;;;5094487;28;20118;-81
2023/04/11 08:17:36;;;;;;;4.30;1.40;;;7.70;99.90;;;;;;5095202;28;20458;-81
2023/04/11 08:20:08;;;;;;;4.20;1.67;;;7.40;99.90;;;;;;5094016;28;20056;-79
2023/04/11 08:22:33;;;;;;;2.75;1.17;;;6.70;99.90;;;;;;5094600;28;20044;-80
2023/04/11 08:24:59;;;;;;;3.75;1.42;;;6.90;99.90;;;;;;5095585;28;20503;-80
2023/04/11 08:27:25;;;;;;;3.92;1.58;;;7.00;99.90;;;;;;5094034;28;20518;-80
2023/04/11 08:29:50;;;;;;;5.35;1.30;;;6.90;99.90;;;;;;5095782;28;20455;-79
2023/04/11 08:32:16;;;;;;;5.32;1.70;;;6.90;99.90;;;;;;5100104;28;20032;-80
2023/04/11 08:34:41;;;;;;;5.85;1.60;;;7.10;99.90;;;;;;5099009;28;20142;-80
2023/04/11 08:37:07;;;;;;;4.25;1.55;;;7.10;99.90;;;;;;5099471;28;20048;-80
2023/04/11 08:39:33;;;;;;;5.20;1.48;;;7.30;99.90;;;;;;5095635;28;20055;-80
2023/04/11 08:41:59;;;;;;;4.55;2.08;;;7.50;99.90;;;;;;5095306;28;20153;-80
2023/04/11 08:44:24;;;;;;;3.80;1.33;;;7.50;99.90;;;;;;5093868;28;20067;-79
2023/04/11 08:46:50;;;;;;;2.92;1.23;;;7.50;99.90;;;;;;5093962;28;20080;-79
2023/04/11 08:49:16;;;;;;;3.47;1.33;;;7.40;99.90;;;;;;5095564;28;20039;-79
2023/04/11 08:51:43;;;;;;;4.05;1.85;;;7.60;99.90;;;;;;5095872;28;20032;-79
2023/04/11 08:54:09;;;;;;;4.13;1.60;;;7.70;99.90;;;;;;5076568;28;20044;-75
2023/04/11 08:56:36;;;;;;;4.45;1.60;;;7.70;99.90;;;;;;5094837;28;20043;-73
2023/04/11 08:59:02;;;;;;;2.60;1.27;;;7.90;99.90;;;;;;5093455;28;20047;-78
2023/04/11 09:01:32;;;;;;;5.20;1.30;;;8.10;99.90;;;;;;5094287;28;20028;-79
2023/04/11 09:03:58;;;;;;;;;;;8.30;99.90;;;;;;5093426;28;20043;-78
2023/04/11 09:06:25;;;;;;;4.13;1.50;;;8.30;99.90;;;;;;5094240;28;19916;-79
2023/04/11 09:08:51;;;;;;;3.60;1.50;;;8.30;99.90;;;;;;5094025;28;20048;-79
2023/04/11 09:11:17;;;;;;;4.63;1.80;;;8.30;99.90;;;;;;5094537;28;20399;-79
2023/04/11 09:13:43;;;;;;;4.40;1.40;;;7.90;99.90;;;;;;5094163;28;20119;-79
2023/04/11 09:16:11;;;;;;;3.72;1.55;;;7.20;99.90;;;;;;5094521;28;20035;-79
2023/04/11 09:18:40;;;;;;;3.67;1.13;;;7.10;99.90;;;;;;5076290;28;20047;-78
2023/04/11 09:21:09;;;;;;;4.15;1.20;;;7.10;99.90;;;;;;5126933;27;20093;-78
2023/04/11 09:23:35;;;;;;;4.20;1.27;;;7.30;99.90;;;;;;5093047;28;20510;-78
2023/04/11 09:26:01;;;;;;;3.35;1.00;;;7.50;99.90;;;;;;5094296;28;20036;-80
2023/04/11 09:28:37;;;;;;;1.80;0.98;;;7.60;99.90;;;;;;5092673;28;20341;-80
2023/04/11 09:31:03;;;;;;;2.20;1.05;;;7.80;99.90;;;;;;5093758;28;20072;-80
2023/04/11 09:33:30;;;;;;;1.95;1.02;;;7.80;99.90;;;;;;5092772;28;20043;-79
2023/04/11 09:35:56;;;;;;;3.00;1.10;;;7.70;99.90;;;;;;5094143;28;20051;-80
2023/04/11 09:38:33;;;;;;;3.92;1.95;;;7.80;99.90;;;;;;5092415;28;20423;-79
2023/04/11 09:41:03;;;;;;;8.02;1.67;;;7.80;99.90;;;;;;5094029;28;20048;-79
2023/04/11 09:43:49;;;;;;;2.67;1.10;;;8.20;99.90;;;;;;5093929;28;20028;-79
2023/04/11 09:46:17;;;;;;;4.28;1.25;;;8.40;99.90;;;;;;5075467;28;20036;-80
2023/04/11 09:48:43;;;;;;;2.72;1.10;;;8.40;99.90;;;;;;5126801;27;20032;-79
2023/04/11 09:51:09;;;;;;;2.10;0.82;;;8.40;99.90;;;;;;5092515;28;20032;-80
2023/04/11 09:53:36;;;;;;;3.42;1.20;;;8.30;99.90;;;;;;5092582;28;20137;-77
2023/04/11 09:56:02;;;;;;;4.18;1.35;;;7.60;99.90;;;;;;5092570;28;20483;-78
2023/04/11 09:58:33;;;;;;;3.15;1.00;;;7.50;99.90;;;;;;5092463;28;20032;-78
2023/04/11 10:00:59;;;;;;;3.13;1.00;;;7.40;99.90;;;;;;5093715;28;20126;-78
2023/04/11 10:03:26;;;;;;;2.72;1.00;;;7.30;99.90;;;;;;5093696;28;20040;-78
2023/04/11 10:05:53;;;;;;;2.13;0.95;;;7.20;99.90;;;;;;5091580;28;20071;-79
2023/04/11 10:08:29;;;;;;;2.58;1.08;;;7.10;99.90;;;;;;5092042;28;20044;-78
2023/04/11 10:10:56;;;;;;;1.95;0.90;;;7.10;99.90;;;;;;5092397;28;20047;-78
2023/04/11 10:13:34;;;;;;;0.88;0.70;;;7.10;99.90;;;;;;5092305;28;20115;-78
2023/04/11 10:16:07;;;;;;;1.88;0.80;;;7.20;99.90;;;;;;5092372;28;20391;-79
2023/04/11 10:18:32;;;;;;;1.88;1.00;;;7.30;99.90;;;;;;5093656;28;20052;-79
2023/04/11 10:20:58;;;;;;;4.70;1.40;;;7.30;99.90;;;;;;5075463;28;20040;-79
2023/04/11 10:23:24;;;;;;;3.60;1.27;;;7.50;99.90;;;;;;5093574;28;20028;-79
2023/04/11 10:25:59;;;;;;;3.45;1.13;;;7.70;99.90;;;;;;5092053;28;20036;-79
2023/04/11 10:28:28;;;;;;;5.78;1.50;;;7.70;99.90;;;;;;5093614;28;20032;-79
2023/04/11 10:31:03;;;;;;;3.37;1.40;;;7.80;99.90;;;;;;5091949;28;20040;-79
2023/04/11 10:33:29;;;;;;;3.90;1.35;;;7.80;99.90;;;;;;5092172;28;20070;-79
2023/04/11 10:35:56;;;;;;;3.78;1.48;;;8.00;99.90;;;;;;5093071;28;20046;-78
2023/04/11 10:38:43;;;;;;;3.53;1.50;;;8.10;99.90;;;;;;5093131;28;20052;-78
2023/04/11 10:41:16;;;;;;;6.55;1.50;;;8.20;99.90;;;;;;5093950;28;20050;-79
2023/04/11 10:43:42;;;;;;;4.13;1.40;;;8.60;99.90;;;;;;5093009;28;20036;-79
2023/04/11 10:46:26;;;;;;;5.05;1.73;;;8.80;99.90;;;;;;5092076;28;20044;-78
2023/04/11 10:49:03;;;;;;;3.72;1.40;;;8.70;99.90;;;;;;5091673;28;20040;-78
2023/04/11 10:51:32;;;;;;;5.43;1.65;;;8.60;99.90;;;;;;5093182;28;20051;-78
2023/04/11 10:53:59;;;;;;;2.33;1.00;;;8.70;99.90;;;;;;5093288;28;20085;-78
2023/04/11 10:56:47;;;;;;;3.15;1.52;;;9.00;99.90;;;;;;5092023;28;20047;-78
2023/04/11 10:59:31;;;;;;;3.80;1.25;;;9.40;99.90;;;;;;5093250;28;20071;-79
2023/04/11 11:01:59;;;;;;;3.17;1.33;;;9.80;99.90;;;;;;5091648;28;20040;-77
2023/04/11 11:04:31;;;;;;;3.33;1.20;;;10.20;99.90;;;;;;5092022;28;20119;-78
2023/04/11 11:07:03;;;;;;;5.10;1.42;;;10.40;99.90;;;;;;5091607;28;20075;-78
2023/04/11 11:09:29;;;;;;;2.50;1.23;;;10.40;99.90;;;;;;5091583;28;20044;-78
2023/04/11 11:12:08;;;;;;;5.03;1.63;;;10.00;99.90;;;;;;5075504;28;20052;-77
2023/04/11 11:14:35;;;;;;;2.75;1.48;;;9.90;99.90;;;;;;5091554;28;20043;-77
2023/04/11 11:17:01;;;;;;;3.17;1.38;;;9.60;99.90;;;;;;5092029;28;20078;-78
2023/04/11 11:19:30;;;;;;;3.05;1.38;;;9.60;99.90;;;;;;5095341;28;20126;-78
2023/04/11 11:22:02;;;;;;;3.58;1.30;;;9.50;99.90;;;;;;5095369;28;20377;-77
2023/04/11 11:24:28;;;;;;;4.38;1.20;;;9.10;99.90;;;;;;5096610;28;20036;-78
2023/04/11 11:26:55;;;;;;;2.78;1.20;;;7.60;99.90;;;;;;5096456;28;20043;-79
2023/04/11 11:29:36;;;;;;;1.98;0.90;;;7.60;99.90;;;;;;5096332;28;20086;-79
2023/04/11 11:32:02;;;;;;;3.45;1.23;;;7.70;99.90;;;;;;5096325;28;20082;-79
2023/04/11 11:34:31;;;;;;;2.30;1.08;;;7.80;99.90;;;;;;5096256;28;20361;-77
2023/04/11 11:37:00;;;;;;;4.07;1.40;;;8.00;99.90;;;;;;5094972;28;20365;-77
2023/04/11 11:39:27;;;;;;;3.85;1.60;;;8.30;99.90;;;;;;5094818;28;20081;-77
2023/04/11 11:41:54;;;;;;;3.17;1.33;;;8.30;99.90;;;;;;5094561;28;20048;-77
2023/04/11 11:44:25;;;;;;;3.50;1.40;;;8.10;99.90;;;;;;5096094;28;20040;-77
2023/04/11 11:47:11;;;;;;;;;;;7.90;99.90;;;;;;5095271;28;20057;-76
2023/04/11 11:49:55;;;;;;;3.38;1.08;;;8.00;99.90;;;;;;5094627;28;19920;-77
2023/04/11 11:52:41;;;;;;;3.53;1.30;;;8.30;99.90;;;;;;5094706;28;20035;-77
2023/04/11 11:55:27;;;;;;;3.03;1.33;;;8.40;99.90;;;;;;5094697;28;20036;-77
2023/04/11 11:57:52;;;;;;;3.13;1.20;;;8.70;99.90;;;;;;5111251;28;20165;-77
2023/04/11 12:00:26;;;;;;;4.72;1.60;;;8.80;99.90;;;;;;5095953;28;20488;-78
2023/04/11 12:02:53;;;;;;;2.60;1.17;;;8.70;99.90;;;;;;5095862;28;20081;-77
2023/04/11 12:05:19;;;;;;;3.15;1.50;;;8.50;99.90;;;;;;5094146;28;20123;-77
2023/04/11 12:07:45;;;;;;;3.28;1.63;;;8.60;99.90;;;;;;5128223;27;20484;-77
2023/04/11 12:10:15;;;;;;;2.72;1.40;;;8.70;99.90;;;;;;5094190;28;20044;-77
2023/04/11 12:12:42;;;;;;;3.67;1.52;;;8.70;99.90;;;;;;5094051;28;20177;-77
2023/04/11 12:15:13;;;;;;;3.13;1.25;;;8.80;99.90;;;;;;5095551;28;20364;-77
2023/04/11 12:17:39;;;;;;;4.28;1.55;;;8.80;99.90;;;;;;5094060;28;20122;-77
2023/04/11 12:20:07;;;;;;;3.72;1.33;;;9.10;99.90;;;;;;5093825;28;20039;-77
2023/04/11 12:22:34;;;;;;;4.03;1.42;;;9.20;99.90;;;;;;5093800;28;20048;-77
2023/04/11 12:25:13;;;;;;;3.40;1.48;;;9.60;99.90;;;;;;5095363;28;20131;-76
2023/04/11 12:27:41;;;;;;;3.63;1.75;;;9.80;99.90;;;;;;5095165;28;20042;-77
2023/04/11 12:30:08;;;;;;;3.80;1.50;;;10.00;99.90;;;;;;5095274;28;20472;-76
2023/04/11 12:32:35;;;;;;;3.78;1.73;;;10.30;99.90;;;;;;5093649;28;20054;-76
2023/04/11 12:35:02;;;;;;;3.95;1.80;;;10.60;99.90;;;;;;5127629;27;20063;-77
2023/04/11 12:37:28;;;;;;;5.20;1.60;;;10.40;99.90;;;;;;5094994;28;20444;-77
2023/04/11 12:39:53;;;;;;;4.28;1.73;;;10.30;99.90;;;;;;5095067;28;20115;-77
2023/04/11 12:42:19;;;;;;;3.85;1.38;;;10.20;99.90;;;;;;5095037;28;20394;-77
2023/04/11 12:44:46;;;;;;;3.63;1.83;;;9.70;99.90;;;;;;5094962;28;20050;-78
2023/04/11 12:47:12;;;;;;;4.55;1.60;;;9.60;99.90;;;;;;5094983;28;20040;-77
2023/04/11 12:49:38;;;;;;;3.40;1.60;;;9.80;99.90;;;;;;5094913;28;20101;-77
2023/04/11 12:52:05;;;;;;;5.68;1.63;;;10.00;99.90;;;;;;5094860;28;20078;-77
2023/04/11 12:54:31;;;;;;;3.85;1.45;;;10.30;99.90;;;;;;5077377;28;20043;-77
2023/04/11 12:56:57;;;;;;;4.50;1.70;;;10.60;99.90;;;;;;5093462;28;20058;-77
2023/04/11 12:59:25;;;;;;;4.05;1.52;;;10.70;99.90;;;;;;5093724;28;20384;-77